Time;durP1;ratioP1;P1;durP2;ratioP2;P2;SDS_P1;SDS_P2;PMS_P1;PMS_P2;Temp;Humidity;BMP_temperature;BMP_pressure;BME280_temperature;BME280_humidity;BME280_pressure;Samples;Min_cycle;Max_cycle;Signal;HPM_P1;HPM_P2
2022/12/08 00:00:17;;;;;;;26.67;19.53;;;;;;;9.23;100.00;101519.50;2063364;28;20268;-70
2022/12/08 00:01:20;;;;;;;26.33;19.87;;;;;;;9.22;100.00;101519.94;2062922;28;20232;-70
2022/12/08 00:02:20;;;;;;;26.50;19.07;;;;;;;9.25;100.00;101525.44;2062164;28;20214;-70
2022/12/08 00:03:21;;;;;;;26.70;19.83;;;;;;;9.29;100.00;101523.47;2061977;28;20451;-70
2022/12/08 00:04:21;;;;;;;25.43;18.83;;;;;;;9.32;100.00;101521.88;2062931;28;20284;-70
2022/12/08 00:09:24;;;;;;;27.80;19.90;;;;;;;9.08;100.00;101506.94;2061546;28;20444;-70
2022/12/08 00:10:25;;;;;;;28.97;19.20;;;;;;;8.86;100.00;101465.97;2062767;28;20443;-70
2022/12/08 00:11:25;;;;;;;26.97;19.60;;;;;;;9.22;100.00;101529.00;2062956;28;20441;-70
2022/12/08 00:12:25;;;;;;;25.43;19.27;;;;;;;9.21;100.00;101519.13;2062818;28;20231;-70
2022/12/08 00:13:26;;;;;;;28.00;19.37;;;;;;;9.24;100.00;101523.88;2062271;28;20190;-70
2022/12/08 00:14:35;;;;;;;28.40;20.50;;;;;;;9.23;100.00;101522.28;2062488;28;20181;-70
2022/12/08 00:15:35;;;;;;;26.10;19.90;;;;;;;9.23;100.00;101518.72;2062376;28;20176;-70
2022/12/08 00:16:36;;;;;;;26.63;19.23;;;;;;;9.24;100.00;101523.88;2063497;28;20431;-70
2022/12/08 00:17:36;;;;;;;24.07;17.73;;;;;;;9.25;100.00;101527.41;2063068;28;20591;-70
2022/12/08 00:18:37;;;;;;;27.30;19.80;;;;;;;9.25;100.00;101521.88;2063219;28;20215;-70
2022/12/08 00:19:38;;;;;;;26.33;18.90;;;;;;;9.23;100.00;101524.25;2062876;28;20204;-70
2022/12/08 00:20:39;;;;;;;28.35;19.60;;;;;;;9.23;100.00;101529.78;2062986;28;20199;-70
2022/12/08 00:21:39;;;;;;;26.07;19.07;;;;;;;9.23;100.00;101525.03;2062751;28;20196;-70
2022/12/08 00:22:40;;;;;;;25.07;18.30;;;;;;;9.23;100.00;101525.03;2062666;28;20179;-70
2022/12/08 00:23:40;;;;;;;25.07;18.37;;;;;;;9.21;100.00;101524.66;2062286;28;20186;-70
2022/12/08 00:24:43;;;;;;;23.40;18.30;;;;;;;9.06;100.00;101502.97;2062882;28;20630;-70
2022/12/08 00:25:44;;;;;;;21.55;17.42;;;;;;;9.23;100.00;101535.31;2062574;28;20567;-70
2022/12/08 00:26:45;;;;;;;24.30;17.73;;;;;;;9.25;100.00;101530.16;2063093;28;20216;-70
2022/12/08 00:27:45;;;;;;;24.77;18.02;;;;;;;9.28;100.00;101523.84;2063014;28;20267;-70
2022/12/08 00:28:46;;;;;;;23.93;17.77;;;;;;;9.18;100.00;101505.31;2063139;28;20200;-70
2022/12/08 00:29:46;;;;;;;23.33;17.53;;;;;;;8.08;100.00;101338.28;2062674;28;20200;-70
2022/12/08 00:30:46;;;;;;;22.47;17.60;;;;;;;9.21;100.00;101512.78;2063283;28;20188;-70
2022/12/08 00:31:47;;;;;;;23.53;18.53;;;;;;;8.52;100.00;101406.84;2062839;28;20600;-70
2022/12/08 00:32:47;;;;;;;23.80;18.03;;;;;;;9.18;100.00;101513.63;2063094;28;20183;-70
2022/12/08 00:33:48;;;;;;;25.60;18.70;;;;;;;9.16;100.00;101511.25;2062071;28;20935;-70
2022/12/08 00:34:48;;;;;;;25.57;18.70;;;;;;;9.15;100.00;101506.91;2062571;28;20258;-70
2022/12/08 00:35:49;;;;;;;26.17;18.87;;;;;;;9.16;100.00;101518.75;2062580;28;20203;-70
2022/12/08 00:36:49;;;;;;;21.63;17.73;;;;;;;9.16;100.00;101521.50;2063038;28;20651;-70
2022/12/08 00:37:49;;;;;;;26.53;19.10;;;;;;;9.18;100.00;101525.44;2062973;28;20200;-70
2022/12/08 00:38:50;;;;;;;22.83;18.67;;;;;;;8.85;100.00;101476.22;2062900;28;20186;-71
2022/12/08 00:39:50;;;;;;;22.00;18.00;;;;;;;9.20;100.00;101527.81;2062676;28;20185;-70
2022/12/08 00:40:51;;;;;;;23.07;17.47;;;;;;;9.16;100.00;101525.06;2062899;28;20553;-70
2022/12/08 00:43:10;;;;;;;25.40;18.47;;;;;;;9.20;100.00;101531.38;2061347;28;20176;-70
2022/12/08 00:44:14;;;;;;;22.43;17.97;;;;;;;9.19;100.00;101524.28;2063599;28;20417;-70
2022/12/08 00:45:15;;;;;;;24.70;17.93;;;;;;;8.51;100.00;101411.56;2063907;28;20254;-70
2022/12/08 00:46:15;;;;;;;22.00;17.53;;;;;;;9.16;100.00;101522.31;2064439;28;20977;-70
2022/12/08 00:47:15;;;;;;;22.40;17.33;;;;;;;8.66;100.00;101442.72;2064535;28;20861;-71
2022/12/08 00:48:16;;;;;;;24.60;18.40;;;;;;;9.12;100.00;101518.75;2064147;28;20194;-70
2022/12/08 00:49:17;;;;;;;24.77;16.87;;;;;;;8.80;100.00;101475.81;2063964;28;20205;-70
2022/12/08 00:50:17;;;;;;;25.20;17.87;;;;;;;9.13;100.00;101525.88;2064076;28;20192;-70
2022/12/08 00:51:18;;;;;;;25.27;18.27;;;;;;;9.13;100.00;101519.56;2064706;28;20499;-70
2022/12/08 00:52:18;;;;;;;24.77;18.40;;;;;;;9.17;100.00;101525.88;2064448;28;20189;-70
2022/12/08 00:53:19;;;;;;;23.73;17.90;;;;;;;9.19;100.00;101517.94;2063581;28;20704;-70
2022/12/08 00:54:21;;;;;;;21.93;17.40;;;;;;;8.75;100.00;101451.38;2064444;28;20186;-70
2022/12/08 00:55:22;;;;;;;22.43;16.97;;;;;;;8.20;100.00;101373.00;2062289;28;20746;-70
2022/12/08 00:56:22;;;;;;;21.47;16.47;;;;;;;9.15;100.00;101515.22;2064484;28;20828;-70
2022/12/08 00:57:23;;;;;;;21.83;16.53;;;;;;;9.13;100.00;101511.28;2064287;28;20288;-70
2022/12/08 00:58:23;;;;;;;21.00;16.77;;;;;;;9.14;100.00;101513.63;2064309;28;20576;-70
2022/12/08 00:59:24;;;;;;;22.70;17.47;;;;;;;9.14;100.00;101513.63;2064416;28;20193;-70
2022/12/08 01:00:24;;;;;;;20.47;16.50;;;;;;;9.13;100.00;101509.28;2064796;28;20640;-70
2022/12/08 01:01:25;;;;;;;20.93;16.57;;;;;;;9.15;100.00;101511.66;2064429;28;20275;-70
2022/12/08 01:02:25;;;;;;;22.63;17.37;;;;;;;9.14;100.00;101516.41;2063986;28;20236;-70
2022/12/08 01:03:25;;;;;;;25.60;16.47;;;;;;;8.95;100.00;101499.47;2063373;28;20634;-70
2022/12/08 01:04:26;;;;;;;24.20;17.10;;;;;;;9.15;100.00;101515.22;2064009;28;20192;-70
2022/12/08 01:05:26;;;;;;;21.33;16.90;;;;;;;9.15;100.00;101517.97;2063867;28;20667;-70
2022/12/08 01:06:27;;;;;;;21.07;16.83;;;;;;;9.11;100.00;101522.72;2064339;28;20183;-70
2022/12/08 01:07:27;;;;;;;20.20;16.37;;;;;;;9.10;100.00;101521.16;2064135;28;20193;-70
2022/12/08 01:08:27;;;;;;;23.40;16.10;;;;;;;9.14;100.00;101524.69;2064813;28;20184;-70
2022/12/08 01:09:28;;;;;;;21.87;16.93;;;;;;;9.14;100.00;101529.44;2064425;28;20192;-70
2022/12/08 01:10:28;;;;;;;21.00;16.87;;;;;;;9.16;100.00;101525.06;2064283;28;20548;-70
2022/12/08 01:11:29;;;;;;;21.03;16.70;;;;;;;9.17;100.00;101521.13;2064248;28;20198;-70
2022/12/08 01:12:29;;;;;;;20.83;16.43;;;;;;;9.22;100.00;101522.69;2063435;28;20692;-70
2022/12/08 01:13:30;;;;;;;21.37;15.93;;;;;;;9.26;100.00;101520.69;2063268;28;20202;-70
2022/12/08 01:14:30;;;;;;;23.03;16.27;;;;;;;9.22;100.00;101519.94;2063960;28;20546;-70
2022/12/08 01:15:31;;;;;;;20.43;15.20;;;;;;;9.23;100.00;101513.97;2063635;28;20236;-70
2022/12/08 01:16:33;;;;;;;20.50;15.33;;;;;;;9.21;100.00;101521.91;2064703;28;20303;-70
2022/12/08 01:17:36;;;;;;;21.17;16.25;;;;;;;9.21;100.00;101521.91;2064228;28;20558;-70
2022/12/08 01:18:37;;;;;;;21.67;16.67;;;;;;;9.21;100.00;101521.91;2064379;28;20665;-70
2022/12/08 01:19:37;;;;;;;20.63;16.83;;;;;;;9.19;100.00;101524.28;2063886;28;20845;-70
2022/12/08 01:20:38;;;;;;;21.37;16.77;;;;;;;8.97;100.00;101488.81;2064472;28;20299;-70
2022/12/08 01:21:39;;;;;;;20.67;16.77;;;;;;;8.53;100.00;101417.50;2064157;28;20586;-70
2022/12/08 01:22:39;;;;;;;21.85;17.02;;;;;;;9.09;100.00;101508.53;2063731;28;20287;-70
2022/12/08 01:23:40;;;;;;;22.93;16.80;;;;;;;9.20;100.00;101514.78;2063422;28;20652;-70
2022/12/08 01:24:40;;;;;;;20.37;16.57;;;;;;;9.17;100.00;101521.13;2063846;28;20641;-70
2022/12/08 01:25:41;;;;;;;24.03;16.43;;;;;;;9.18;100.00;101527.44;2064050;28;20331;-70
2022/12/08 01:26:41;;;;;;;23.47;16.77;;;;;;;9.15;100.00;101520.75;2063845;28;20251;-70
2022/12/08 01:27:41;;;;;;;18.83;15.87;;;;;;;9.16;100.00;101514.00;2064206;28;20709;-70
2022/12/08 01:28:43;;;;;;;20.83;16.20;;;;;;;8.99;100.00;101491.97;2064246;28;20227;-69
2022/12/08 01:29:43;;;;;;;21.75;16.58;;;;;;;9.19;100.00;101509.66;2064040;28;20590;-70
2022/12/08 01:30:43;;;;;;;22.13;16.13;;;;;;;9.18;100.00;101508.84;2064187;28;20211;-70
2022/12/08 01:31:44;;;;;;;22.23;16.87;;;;;;;9.21;100.00;101521.09;2063865;28;20276;-70
2022/12/08 01:32:44;;;;;;;22.17;17.00;;;;;;;9.22;100.00;101515.16;2063807;28;20196;-70
2022/12/08 01:33:46;;;;;;;20.70;16.17;;;;;;;9.19;100.00;101518.75;2063628;28;20249;-70
2022/12/08 01:34:46;;;;;;;20.80;16.67;;;;;;;9.17;100.00;101512.81;2063526;28;20197;-70
2022/12/08 01:35:47;;;;;;;19.63;16.50;;;;;;;9.21;100.00;101508.06;2063358;28;20448;-70
2022/12/08 01:36:47;;;;;;;25.17;18.30;;;;;;;9.15;100.00;101506.13;2064031;28;20328;-70
2022/12/08 01:37:49;;;;;;;23.00;16.97;;;;;;;9.19;100.00;101504.13;2063713;28;20201;-70
2022/12/08 01:38:50;;;;;;;27.07;19.40;;;;;;;9.20;100.00;101512.03;2064114;28;20201;-69
2022/12/08 01:39:50;;;;;;;22.30;18.23;;;;;;;9.23;100.00;101504.91;2063387;28;20443;-70
2022/12/08 01:40:51;;;;;;;24.07;17.97;;;;;;;9.21;100.00;101508.06;2063228;28;20668;-69
2022/12/08 01:41:51;;;;;;;26.43;19.13;;;;;;;8.59;100.00;101412.34;2064311;28;20188;-70
2022/12/08 01:42:52;;;;;;;27.20;19.57;;;;;;;9.23;100.00;101515.97;2063568;28;20214;-70
2022/12/08 01:43:52;;;;;;;28.23;20.63;;;;;;;9.23;100.00;101513.19;2063458;28;20187;-70
2022/12/08 01:44:57;;;;;;;27.97;20.90;;;;;;;9.24;100.00;101517.53;2063591;28;20199;-70
2022/12/08 01:45:57;;;;;;;27.85;20.23;;;;;;;9.06;100.00;101492.72;2063857;28;20229;-70
2022/12/08 01:46:58;;;;;;;26.73;19.80;;;;;;;9.21;100.00;101516.38;2064048;28;20197;-70
2022/12/08 01:48:09;;;;;;;29.33;20.37;;;;;;;9.17;100.00;101507.28;2063994;28;21609;-70
2022/12/08 01:49:14;;;;;;;29.60;21.47;;;;;;;9.18;100.00;101511.63;2064001;28;20193;-70
2022/12/08 01:50:18;;;;;;;32.90;22.43;;;;;;;9.19;100.00;101513.22;2063081;28;20433;-70
2022/12/08 01:51:19;;;;;;;32.97;22.70;;;;;;;9.04;100.00;101489.59;2063898;28;20464;-70
2022/12/08 01:52:32;;;;;;;31.57;23.47;;;;;;;9.20;100.00;101514.78;2063203;28;20975;-70
2022/12/08 01:53:33;;;;;;;30.53;22.50;;;;;;;9.23;100.00;101510.44;2063099;28;20414;-70
2022/12/08 01:54:38;;;;;;;31.93;22.60;;;;;;;9.19;100.00;101518.75;2063766;28;20429;-71
2022/12/08 01:55:46;;;;;;;31.13;23.70;;;;;;;9.17;100.00;101515.59;2062773;28;20710;-70
2022/12/08 01:57:08;;;;;;;34.23;24.53;;;;;;;9.20;100.00;101514.78;2063323;28;20814;-70
2022/12/08 01:58:24;;;;;;;32.03;23.63;;;;;;;9.16;100.00;101518.75;2063031;28;20413;-70
2022/12/08 01:59:25;;;;;;;31.23;23.70;;;;;;;8.96;100.00;101485.25;2063727;28;20538;-70
2022/12/08 02:00:26;;;;;;;33.87;24.60;;;;;;;9.17;100.00;101521.13;2063997;28;20446;-70
2022/12/08 02:01:26;;;;;;;30.13;23.40;;;;;;;9.19;100.00;101507.69;2063524;28;20436;-70
2022/12/08 02:02:35;;;;;;;31.80;24.10;;;;;;;8.84;100.00;101468.31;2062374;28;20224;-70
2022/12/08 02:03:44;;;;;;;32.08;23.42;;;;;;;9.15;100.00;101509.69;2062500;28;20278;-70
2022/12/08 02:04:44;;;;;;;32.65;24.02;;;;;;;8.43;100.00;101399.00;2063207;28;20204;-70
2022/12/08 02:05:46;;;;;;;35.93;24.77;;;;;;;9.15;100.00;101508.88;2063330;28;20184;-70
2022/12/08 02:06:48;;;;;;;33.37;23.67;;;;;;;8.63;100.00;101435.22;2063805;28;20199;-71
2022/12/08 02:07:50;;;;;;;34.00;23.67;;;;;;;9.14;100.00;101513.63;2063511;28;21227;-70
2022/12/08 02:08:51;;;;;;;34.83;24.20;;;;;;;9.15;100.00;101512.44;2063936;28;20447;-70
2022/12/08 02:09:53;;;;;;;33.85;22.88;;;;;;;9.13;100.00;101506.50;2063668;28;20545;-70
2022/12/08 02:10:53;;;;;;;31.87;23.73;;;;;;;9.12;100.00;101507.69;2064005;28;20191;-70
2022/12/08 02:11:57;;;;;;;30.93;23.20;;;;;;;9.11;100.00;101505.34;2063615;28;20980;-70
2022/12/08 02:12:59;;;;;;;31.87;23.13;;;;;;;8.78;100.00;101458.88;2063401;28;20192;-70
2022/12/08 02:14:05;;;;;;;33.17;24.37;;;;;;;8.29;100.00;101370.59;2063654;28;20802;-70
2022/12/08 02:15:06;;;;;;;32.22;23.55;;;;;;;9.12;100.00;101501.41;2062464;28;20546;-70
2022/12/08 02:16:28;;;;;;;30.57;22.93;;;;;;;8.79;100.00;101468.72;2063440;28;20196;-70
2022/12/08 02:18:07;;;;;;;33.47;23.15;;;;;;;9.12;100.00;101493.88;2063908;28;20811;-70
2022/12/08 02:19:20;;;;;;;31.45;22.60;;;;;;;9.09;100.00;101503.00;2062844;28;20200;-70
2022/12/08 02:20:28;;;;;;;36.20;23.95;;;;;;;9.10;100.00;101501.00;2063574;28;20187;-70
2022/12/08 02:21:34;;;;;;;34.40;23.60;;;;;;;9.09;100.00;101502.19;2064180;28;20181;-70
2022/12/08 02:22:52;;;;;;;34.33;23.37;;;;;;;9.07;100.00;101499.81;2063279;28;20300;-70
2022/12/08 02:23:53;;;;;;;30.83;23.17;;;;;;;9.09;100.00;101503.00;2071068;28;20441;-70
2022/12/08 02:25:13;;;;;;;33.93;24.53;;;;;;;8.42;100.00;101402.94;2070242;28;20451;-70
2022/12/08 02:26:54;;;;;;;33.30;22.80;;;;;;;9.09;100.00;101505.75;2062985;28;20176;-70
2022/12/08 02:28:13;;;;;;;36.25;23.55;;;;;;;9.06;100.00;101503.78;2063158;28;20301;-70
2022/12/08 02:29:38;;;;;;;30.42;22.30;;;;;;;9.02;100.00;101508.53;2063101;28;20226;-70
2022/12/08 02:31:06;;;;;;;30.98;22.65;;;;;;;9.05;100.00;101501.41;2063944;28;20195;-70
2022/12/08 02:32:40;;;;;;;33.13;23.40;;;;;;;9.02;100.00;101507.75;2063361;28;20240;-70
2022/12/08 02:34:33;;;;;;;31.02;21.00;;;;;;;8.98;100.00;101506.97;2062841;28;20279;-70
2022/12/08 02:35:45;;;;;;;33.45;22.40;;;;;;;8.99;100.00;101514.06;2040444;29;20690;-70
2022/12/08 02:37:08;;;;;;;28.03;21.23;;;;;;;8.11;100.00;101381.66;2054513;28;20200;-70
2022/12/08 02:38:44;;;;;;;28.47;21.93;;;;;;;8.96;100.00;101506.59;2063550;28;20443;-69
2022/12/08 02:40:05;;;;;;;27.98;20.95;;;;;;;8.93;100.00;101516.47;2050165;28;20467;-69
2022/12/08 02:41:08;;;;;;;27.65;19.83;;;;;;;8.92;100.00;101508.59;2063146;28;20195;-70
2022/12/08 02:42:26;;;;;;;25.50;19.00;;;;;;;8.90;100.00;101508.97;2063266;28;20779;-70
2022/12/08 02:43:46;;;;;;;26.45;18.95;;;;;;;8.80;100.00;101493.22;2063193;28;20467;-70
2022/12/08 02:44:56;;;;;;;28.40;19.52;;;;;;;8.72;100.00;101496.41;2062916;28;20179;-70
2022/12/08 02:46:02;;;;;;;24.83;18.55;;;;;;;8.51;100.00;101463.28;2063616;28;20555;-70
2022/12/08 02:47:09;;;;;;;25.70;19.60;;;;;;;8.88;100.00;101503.06;2063543;28;20176;-70
2022/12/08 02:48:10;;;;;;;27.42;20.17;;;;;;;8.89;100.00;101504.63;2063394;28;20182;-70
2022/12/08 02:49:13;;;;;;;28.23;19.27;;;;;;;8.92;100.00;101506.59;2063885;28;20252;-70
2022/12/08 02:50:14;;;;;;;26.50;19.33;;;;;;;8.94;100.00;101517.25;2062457;28;20196;-70
2022/12/08 02:51:14;;;;;;;25.02;19.48;;;;;;;8.95;100.00;101508.56;2063089;28;20344;-70
2022/12/08 02:52:18;;;;;;;29.37;20.00;;;;;;;8.98;100.00;101504.22;2063096;28;20203;-70
2022/12/08 02:53:18;;;;;;;24.95;19.20;;;;;;;8.99;100.00;101508.53;2062708;28;20953;-70
2022/12/08 02:54:19;;;;;;;27.97;21.03;;;;;;;9.00;100.00;101508.16;2062965;28;20198;-70
2022/12/08 02:55:23;;;;;;;26.83;19.33;;;;;;;9.02;100.00;101508.53;2061954;28;20192;-69
2022/12/08 02:56:24;;;;;;;25.20;20.33;;;;;;;9.02;100.00;101507.75;2063270;28;20191;-70
2022/12/08 02:57:43;;;;;;;25.80;20.07;;;;;;;9.01;100.00;101512.50;2063493;28;20216;-70
2022/12/08 02:58:49;;;;;;;23.33;18.95;;;;;;;9.03;100.00;101510.09;2063577;28;20179;-70
2022/12/08 02:59:59;;;;;;;25.05;19.30;;;;;;;9.00;100.00;101515.66;2063321;28;20202;-69
2022/12/08 03:01:21;;;;;;;27.02;20.73;;;;;;;8.99;100.00;101508.53;2063366;28;20220;-70
2022/12/08 03:02:46;;;;;;;27.13;20.90;;;;;;;9.00;100.00;101515.66;2062762;28;20681;-70
2022/12/08 03:04:08;;;;;;;28.40;20.40;;;;;;;8.99;100.00;101516.84;2061984;28;20829;-69
2022/12/08 03:05:18;;;;;;;25.30;19.98;;;;;;;8.97;100.00;101511.72;2062286;28;20249;-69
2022/12/08 03:06:21;;;;;;;27.27;21.30;;;;;;;8.95;100.00;101505.00;2063422;28;20235;-69
2022/12/08 03:07:24;;;;;;;26.08;21.23;;;;;;;8.91;100.00;101505.00;2063129;28;20204;-69
2022/12/08 03:08:34;;;;;;;26.13;21.63;;;;;;;8.92;100.00;101509.34;2063162;28;20217;-69
2022/12/08 03:09:53;;;;;;;26.15;20.90;;;;;;;8.94;100.00;101507.00;2063453;28;20216;-69
2022/12/08 03:11:12;;;;;;;27.33;21.33;;;;;;;8.99;100.00;101503.00;2062808;28;20198;-70
2022/12/08 03:12:17;;;;;;;28.17;20.70;;;;;;;8.96;100.00;101501.84;2063066;28;20419;-69
2022/12/08 03:13:32;;;;;;;26.00;20.65;;;;;;;8.91;100.00;101499.47;2062697;28;20225;-70
2022/12/08 03:14:34;;;;;;;30.77;22.77;;;;;;;8.89;100.00;101487.25;2063442;28;20176;-70
2022/12/08 03:15:37;;;;;;;28.27;22.17;;;;;;;8.96;100.00;101495.53;2062729;28;20819;-70
2022/12/08 03:16:41;;;;;;;29.37;22.70;;;;;;;8.19;100.00;101383.22;2063311;28;20441;-70
2022/12/08 03:17:46;;;;;;;28.27;23.10;;;;;;;7.88;100.00;101334.38;2063250;28;20459;-70
2022/12/08 03:18:51;;;;;;;27.90;23.07;;;;;;;8.96;100.00;101503.84;2063332;28;20444;-70
2022/12/08 03:19:54;;;;;;;32.70;23.03;;;;;;;9.01;100.00;101506.16;2063151;28;20441;-70
2022/12/08 03:20:55;;;;;;;32.67;24.17;;;;;;;8.83;100.00;101478.59;2063193;28;21027;-70
2022/12/08 03:22:02;;;;;;;33.67;24.03;;;;;;;9.02;100.00;101502.22;2062807;28;20466;-70
2022/12/08 03:23:06;;;;;;;29.50;23.60;;;;;;;9.00;100.00;101499.06;2061662;28;20425;-70
2022/12/08 03:24:09;;;;;;;30.10;23.77;;;;;;;9.01;100.00;101492.34;2062784;28;20496;-70
2022/12/08 03:25:13;;;;;;;26.97;21.10;;;;;;;8.59;100.00;101446.28;2062123;28;20817;-70
2022/12/08 03:26:40;;;;;;;30.13;21.23;;;;;;;9.01;100.00;101498.66;2063214;28;20419;-70
2022/12/08 03:27:42;;;;;;;25.57;19.20;;;;;;;8.53;100.00;101414.75;2062935;28;20427;-70
2022/12/08 03:28:43;;;;;;;25.10;19.60;;;;;;;8.79;100.00;101460.44;2063021;28;20456;-70
2022/12/08 03:29:49;;;;;;;25.70;21.57;;;;;;;9.11;100.00;101500.59;2063084;28;20439;-70
2022/12/08 03:30:54;;;;;;;23.27;19.33;;;;;;;9.11;100.00;101506.13;2063160;28;20803;-70
2022/12/08 03:32:08;;;;;;;28.83;20.00;;;;;;;8.37;100.00;101380.44;2063293;28;20184;-70
2022/12/08 03:33:19;;;;;;;25.87;19.23;;;;;;;9.12;100.00;101507.69;2061308;28;20981;-70
2022/12/08 03:34:22;;;;;;;21.03;17.10;;;;;;;9.13;100.00;101505.75;2062108;28;20441;-70
2022/12/08 03:35:25;;;;;;;20.87;16.33;;;;;;;9.13;100.00;101500.97;2062770;28;20434;-70
2022/12/08 03:36:26;;;;;;;21.63;16.88;;;;;;;9.10;100.00;101506.53;2063277;28;20499;-70
2022/12/08 03:37:27;;;;;;;22.47;17.53;;;;;;;9.10;100.00;101504.56;2063237;28;20192;-70
2022/12/08 03:38:40;;;;;;;21.00;16.50;;;;;;;9.08;100.00;101501.41;2063131;28;20194;-70
2022/12/08 03:39:40;;;;;;;20.37;16.37;;;;;;;9.07;100.00;101499.81;2062518;28;20457;-70
2022/12/08 03:40:41;;;;;;;20.07;16.03;;;;;;;8.98;100.00;101482.09;2062078;28;20489;-70
2022/12/08 03:41:42;;;;;;;23.97;17.03;;;;;;;8.77;100.00;101452.53;2061728;28;20198;-70
2022/12/08 03:42:42;;;;;;;19.67;16.07;;;;;;;9.02;100.00;101474.59;2062790;28;21074;-70
2022/12/08 03:43:47;;;;;;;25.97;17.77;;;;;;;9.09;100.00;101491.13;2062171;28;20193;-70
2022/12/08 03:44:48;;;;;;;23.97;16.73;;;;;;;8.96;100.00;101474.19;2062904;28;20657;-70
2022/12/08 03:45:48;;;;;;;22.70;17.40;;;;;;;9.09;100.00;101491.94;2063222;28;20819;-70
2022/12/08 03:46:49;;;;;;;22.33;17.77;;;;;;;9.09;100.00;101499.44;2063243;28;20221;-70
2022/12/08 03:47:49;;;;;;;20.87;16.93;;;;;;;9.12;100.00;101493.09;2062918;28;20205;-70
2022/12/08 03:48:50;;;;;;;22.97;17.40;;;;;;;9.11;100.00;101497.03;2063067;28;20225;-70
2022/12/08 03:49:50;;;;;;;20.73;16.57;;;;;;;9.02;100.00;101488.41;2062996;28;20201;-70
2022/12/08 03:50:51;;;;;;;21.20;17.30;;;;;;;9.07;100.00;101505.34;2062930;28;20239;-70
2022/12/08 03:51:51;;;;;;;22.03;17.87;;;;;;;9.10;100.00;101504.56;2063028;28;20572;-70
2022/12/08 03:52:52;;;;;;;21.33;17.73;;;;;;;9.09;100.00;101507.72;2061802;28;20186;-70
2022/12/08 03:53:53;;;;;;;22.20;16.90;;;;;;;9.01;100.00;101493.13;2062391;28;20662;-70
2022/12/08 03:54:53;;;;;;;21.50;17.77;;;;;;;9.04;100.00;101506.16;2062432;28;20224;-70
2022/12/08 03:55:53;;;;;;;23.20;18.10;;;;;;;9.02;100.00;101510.53;2062621;28;20274;-70
2022/12/08 03:56:54;;;;;;;19.93;17.40;;;;;;;9.05;100.00;101515.25;2063079;28;20197;-70
2022/12/08 03:57:54;;;;;;;18.97;16.47;;;;;;;9.05;100.00;101512.47;2063206;28;20184;-70
2022/12/08 03:58:55;;;;;;;20.13;17.23;;;;;;;9.07;100.00;101523.94;2062947;28;20187;-70
2022/12/08 03:59:55;;;;;;;21.27;17.20;;;;;;;9.07;100.00;101521.94;2063250;28;20192;-70
2022/12/08 04:00:56;;;;;;;22.37;17.60;;;;;;;9.09;100.00;101522.34;2063103;28;20228;-70
2022/12/08 04:01:56;;;;;;;23.90;17.90;;;;;;;8.17;100.00;101371.81;2063147;28;20193;-70
2022/12/08 04:02:56;;;;;;;23.07;17.07;;;;;;;9.03;100.00;101501.03;2062649;28;20201;-70
2022/12/08 04:03:57;;;;;;;21.57;17.43;;;;;;;9.05;100.00;101524.34;2063150;28;20217;-70
2022/12/08 04:04:57;;;;;;;21.07;16.83;;;;;;;9.07;100.00;101519.19;2061815;28;20201;-70
2022/12/08 04:05:58;;;;;;;19.63;16.80;;;;;;;9.08;100.00;101519.97;2063229;28;20207;-70
2022/12/08 04:06:58;;;;;;;21.83;17.13;;;;;;;9.10;100.00;101520.34;2063171;28;20192;-71
2022/12/08 04:07:59;;;;;;;21.43;17.33;;;;;;;8.25;100.00;101395.47;2063223;28;20661;-70
2022/12/08 04:09:00;;;;;;;26.00;17.57;;;;;;;9.05;100.00;101518.00;2062839;28;20260;-70
2022/12/08 04:10:00;;;;;;;22.40;17.10;;;;;;;9.09;100.00;101524.31;2063708;28;20423;-70
2022/12/08 04:11:01;;;;;;;21.57;17.53;;;;;;;9.15;100.00;101519.94;2062570;28;20187;-70
2022/12/08 04:12:01;;;;;;;21.73;17.73;;;;;;;9.18;100.00;101508.09;2062910;28;20210;-70
2022/12/08 04:13:02;;;;;;;23.23;17.93;;;;;;;9.18;100.00;101513.63;2062382;28;20199;-70
2022/12/08 04:14:02;;;;;;;23.03;17.87;;;;;;;9.12;100.00;101498.63;2063164;28;20192;-70
2022/12/08 04:15:03;;;;;;;20.87;17.53;;;;;;;9.18;100.00;101502.56;2062160;28;20256;-70
2022/12/08 04:16:04;;;;;;;20.93;17.13;;;;;;;9.06;100.00;101489.16;2063117;28;20184;-70
2022/12/08 04:17:05;;;;;;;21.00;17.77;;;;;;;9.15;100.00;101509.69;2062862;28;20189;-70
2022/12/08 04:18:05;;;;;;;23.00;18.40;;;;;;;9.14;100.00;101507.31;2063359;28;20209;-70
2022/12/08 04:19:05;;;;;;;22.63;17.63;;;;;;;9.15;100.00;101511.66;2063032;28;20697;-70
2022/12/08 04:20:06;;;;;;;20.87;17.70;;;;;;;8.94;100.00;101481.31;2063967;28;20291;-70
2022/12/08 04:21:07;;;;;;;22.13;17.47;;;;;;;9.14;100.00;101518.38;2064395;28;20193;-70
2022/12/08 04:22:07;;;;;;;20.70;17.53;;;;;;;9.15;100.00;101520.75;2064417;28;20216;-70
2022/12/08 04:23:08;;;;;;;21.37;17.53;;;;;;;9.11;100.00;101511.66;2063792;28;20195;-70
2022/12/08 04:24:09;;;;;;;23.63;18.38;;;;;;;9.12;100.00;101516.00;2064805;28;20653;-70
2022/12/08 04:25:09;;;;;;;22.20;18.27;;;;;;;9.10;100.00;101515.63;2063609;28;20572;-70
2022/12/08 04:26:10;;;;;;;23.17;18.70;;;;;;;9.08;100.00;101508.91;2064470;28;20196;-70
2022/12/08 04:27:11;;;;;;;22.23;17.70;;;;;;;9.08;100.00;101515.22;2064433;28;20661;-70
2022/12/08 04:28:12;;;;;;;23.87;18.77;;;;;;;7.98;100.00;101343.81;2064662;28;20317;-70
2022/12/08 04:29:12;;;;;;;23.15;18.80;;;;;;;9.06;100.00;101514.03;2064503;28;20733;-70
2022/12/08 04:30:13;;;;;;;21.67;18.73;;;;;;;9.03;100.00;101512.09;2064576;28;20555;-70
2022/12/08 04:31:13;;;;;;;23.30;18.33;;;;;;;9.09;100.00;101516.03;2064435;28;20200;-70
2022/12/08 04:32:14;;;;;;;23.30;18.40;;;;;;;8.33;100.00;101401.75;2063999;28;20180;-70
2022/12/08 04:33:14;;;;;;;23.60;18.47;;;;;;;9.05;100.00;101512.47;2064081;28;20680;-70
2022/12/08 04:34:15;;;;;;;25.10;19.50;;;;;;;8.98;100.00;101504.22;2063494;28;20183;-70
2022/12/08 04:35:15;;;;;;;22.77;18.53;;;;;;;9.04;100.00;101514.47;2063663;28;20175;-70
2022/12/08 04:36:16;;;;;;;21.80;18.10;;;;;;;9.04;100.00;101516.44;2064540;28;20288;-70
2022/12/08 04:37:16;;;;;;;22.40;18.77;;;;;;;9.03;100.00;101512.88;2064292;28;20189;-70
2022/12/08 04:38:17;;;;;;;22.43;18.63;;;;;;;8.99;100.00;101517.66;2063306;28;20180;-70
2022/12/08 04:39:17;;;;;;;23.37;18.57;;;;;;;8.73;100.00;101476.66;2063683;28;20681;-70
2022/12/08 04:40:18;;;;;;;22.80;17.87;;;;;;;9.02;100.00;101518.81;2063740;28;20284;-70
2022/12/08 04:41:18;;;;;;;22.07;18.40;;;;;;;9.04;100.00;101519.19;2064493;28;20554;-70
2022/12/08 04:42:19;;;;;;;23.90;18.13;;;;;;;9.01;100.00;101520.78;2064080;28;20296;-70
2022/12/08 04:43:19;;;;;;;21.33;18.13;;;;;;;9.02;100.00;101524.34;2064246;28;20191;-70
2022/12/08 04:44:20;;;;;;;24.17;18.73;;;;;;;9.02;100.00;101524.34;2064291;28;20222;-70
2022/12/08 04:45:20;;;;;;;22.67;18.20;;;;;;;9.04;100.00;101528.28;2063675;28;20196;-70
2022/12/08 04:46:20;;;;;;;21.03;17.97;;;;;;;9.05;100.00;101523.53;2064553;28;20207;-70
2022/12/08 04:47:21;;;;;;;20.70;17.63;;;;;;;9.03;100.00;101514.84;2064549;28;20239;-70
2022/12/08 04:48:21;;;;;;;24.13;17.93;;;;;;;9.04;100.00;101519.19;2063943;28;20194;-70
2022/12/08 04:49:22;;;;;;;22.30;18.33;;;;;;;9.02;100.00;101522.34;2064468;28;20194;-70
2022/12/08 04:50:22;;;;;;;23.43;18.10;;;;;;;9.01;100.00;101515.25;2064252;28;20569;-70
2022/12/08 04:51:23;;;;;;;20.63;17.53;;;;;;;9.01;100.00;101515.25;2064794;28;20288;-70
2022/12/08 04:52:23;;;;;;;24.97;18.37;;;;;;;8.30;100.00;101408.09;2063983;28;20185;-70
2022/12/08 04:53:25;;;;;;;21.00;17.60;;;;;;;9.00;100.00;101513.69;2063419;28;20222;-70
2022/12/08 04:54:25;;;;;;;21.50;18.03;;;;;;;8.99;100.00;101517.66;2063922;28;20677;-70
2022/12/08 04:55:26;;;;;;;22.83;17.97;;;;;;;8.96;100.00;101514.91;2063002;28;20442;-70